Time;durP1;ratioP1;P1;durP2;ratioP2;P2;SDS_P1;SDS_P2;PMS_P1;PMS_P2;Temp;Humidity;BMP_temperature;BMP_pressure;BME280_temperature;BME280_humidity;BME280_pressure;Samples;Min_cycle;Max_cycle;Signal;HPM_P1;HPM_P2
2023/05/14 00:00:51;;;;;;;2.85;2.20;;;11.40;99.90;;;;;;5130634;27;20063;-73
2023/05/14 00:03:16;;;;;;;2.47;1.60;;;11.30;99.90;;;;;;5124116;27;20050;-74
2023/05/14 00:05:42;;;;;;;2.15;1.60;;;11.40;99.90;;;;;;5110187;28;20506;-74
2023/05/14 00:08:08;;;;;;;2.35;1.83;;;11.30;99.90;;;;;;5109650;28;20036;-74
2023/05/14 00:10:33;;;;;;;3.22;2.05;;;11.30;99.90;;;;;;5110306;28;20046;-74
2023/05/14 00:13:00;;;;;;;3.78;2.00;;;11.30;99.90;;;;;;5110140;28;20078;-73
2023/05/14 00:15:25;;;;;;;;;;;11.20;99.90;;;;;;5110343;28;20081;-75
2023/05/14 00:17:51;;;;;;;3.53;2.00;;;11.20;99.90;;;;;;5093033;28;19959;-74
2023/05/14 00:20:17;;;;;;;3.53;1.98;;;11.20;99.90;;;;;;5110535;27;20073;-74
2023/05/14 00:22:42;;;;;;;2.83;2.08;;;11.20;99.90;;;;;;5109556;27;20055;-74
2023/05/14 00:25:08;;;;;;;2.28;1.60;;;11.10;99.90;;;;;;5099280;28;20134;-74
2023/05/14 00:27:36;;;;;;;3.88;2.53;;;11.10;99.90;;;;;;5098637;28;20051;-73
2023/05/14 00:30:04;;;;;;;2.90;2.08;;;11.10;99.90;;;;;;5122190;27;20045;-73
2023/05/14 00:32:30;;;;;;;4.25;2.40;;;11.10;99.90;;;;;;5113531;28;20127;-74
2023/05/14 00:34:55;;;;;;;3.60;2.10;;;11.00;99.90;;;;;;5118595;28;20126;-74
2023/05/14 00:37:21;;;;;;;2.53;1.67;;;11.00;99.90;;;;;;5126396;28;20089;-74
2023/05/14 00:39:46;;;;;;;4.93;2.42;;;11.00;99.90;;;;;;5129446;28;20115;-73
2023/05/14 00:42:12;;;;;;;4.53;2.30;;;10.90;99.90;;;;;;5117284;28;20043;-73
2023/05/14 00:44:38;;;;;;;6.22;3.42;;;11.00;99.90;;;;;;5124673;28;20035;-74
2023/05/14 00:47:04;;;;;;;7.90;3.35;;;11.00;99.90;;;;;;5110398;28;20035;-73
2023/05/14 00:49:30;;;;;;;;;;;10.90;99.90;;;;;;5092981;28;20039;-74
2023/05/14 00:51:59;;;;;;;4.13;2.53;;;10.90;99.90;;;;;;5099742;28;19919;-73
2023/05/14 00:54:25;;;;;;;4.80;2.80;;;10.90;99.90;;;;;;5093213;28;20086;-73
2023/05/14 00:56:51;;;;;;;7.55;3.63;;;10.80;99.90;;;;;;5110188;28;20075;-74
2023/05/14 00:59:17;;;;;;;;;;;10.90;99.90;;;;;;5130451;28;20047;-74
2023/05/14 01:01:43;;;;;;;3.60;2.50;;;10.90;99.90;;;;;;5118002;28;20031;-73
2023/05/14 01:04:10;;;;;;;2.80;2.20;;;10.90;99.90;;;;;;5092297;28;20047;-74
2023/05/14 01:07:08;;;;;;;2.17;1.77;;;10.80;99.90;;;;;;5111648;28;20039;-74
2023/05/14 01:09:48;;;;;;;2.47;1.85;;;10.90;99.90;;;;;;5109567;28;20036;-73
2023/05/14 01:12:26;;;;;;;2.35;1.50;;;10.80;99.90;;;;;;5109695;28;20052;-73
2023/05/14 01:14:58;;;;;;;3.22;1.95;;;10.80;99.90;;;;;;5126772;28;20039;-73
2023/05/14 01:17:28;;;;;;;6.00;2.80;;;10.90;99.90;;;;;;5114848;28;20131;-73
2023/05/14 01:19:55;;;;;;;2.28;2.00;;;10.90;99.90;;;;;;5112436;27;20044;-73
2023/05/14 01:22:21;;;;;;;1.92;1.60;;;10.80;99.90;;;;;;5126740;27;20146;-74
2023/05/14 01:24:46;;;;;;;2.25;1.48;;;10.80;99.90;;;;;;5119901;27;20819;-74
2023/05/14 01:27:20;;;;;;;2.25;1.40;;;10.80;99.90;;;;;;5112837;27;20051;-73
2023/05/14 01:30:03;;;;;;;1.73;1.30;;;10.80;99.90;;;;;;5128836;27;20047;-73
2023/05/14 01:32:31;;;;;;;1.58;1.20;;;10.80;99.90;;;;;;5128209;27;20043;-74
2023/05/14 01:34:59;;;;;;;1.27;1.00;;;10.80;99.90;;;;;;5133564;27;20054;-74
2023/05/14 01:37:25;;;;;;;3.50;1.50;;;10.80;99.90;;;;;;5130365;27;20043;-74
2023/05/14 01:39:52;;;;;;;2.35;1.42;;;10.70;99.90;;;;;;5099035;28;20118;-73
2023/05/14 01:42:18;;;;;;;3.53;2.00;;;10.80;99.90;;;;;;5122603;27;20502;-73
2023/05/14 01:44:44;;;;;;;2.55;1.90;;;10.70;99.90;;;;;;5115308;27;20040;-73
2023/05/14 01:47:09;;;;;;;2.70;1.80;;;10.80;99.90;;;;;;5115994;27;20047;-74
2023/05/14 01:49:36;;;;;;;3.20;1.67;;;10.80;99.90;;;;;;5133006;27;20031;-73
2023/05/14 01:52:01;;;;;;;4.35;1.80;;;10.80;99.90;;;;;;5133182;27;20050;-73
2023/05/14 01:54:27;;;;;;;3.70;2.10;;;10.80;99.90;;;;;;5116001;27;20115;-70
2023/05/14 01:56:53;;;;;;;2.63;1.98;;;10.80;99.90;;;;;;5133005;27;20054;-70
2023/05/14 01:59:18;;;;;;;3.00;1.98;;;10.70;99.90;;;;;;5115983;27;20039;-70
2023/05/14 02:01:44;;;;;;;3.45;2.20;;;10.60;99.90;;;;;;5112989;27;20149;-70
2023/05/14 02:04:10;;;;;;;4.20;2.63;;;10.60;99.90;;;;;;5112117;28;20035;-70
2023/05/14 02:06:35;;;;;;;4.80;2.28;;;10.60;99.90;;;;;;5112547;28;20122;-70
2023/05/14 02:09:04;;;;;;;4.88;2.40;;;10.60;99.90;;;;;;5095380;28;20051;-70
2023/05/14 02:11:29;;;;;;;4.63;3.05;;;10.70;99.90;;;;;;5129160;27;20047;-70
2023/05/14 02:13:55;;;;;;;5.53;3.10;;;10.60;99.90;;;;;;5112183;28;20055;-70
2023/05/14 02:16:20;;;;;;;6.60;3.88;;;10.60;99.90;;;;;;5115750;27;20039;-70
2023/05/14 02:18:46;;;;;;;5.35;3.55;;;10.70;99.90;;;;;;5110686;27;20130;-70
2023/05/14 02:21:12;;;;;;;4.82;3.30;;;10.60;99.90;;;;;;5099181;27;20569;-70
2023/05/14 02:23:37;;;;;;;4.43;3.15;;;10.60;99.90;;;;;;5115421;27;20049;-70
2023/05/14 02:26:03;;;;;;;6.93;3.95;;;10.60;99.90;;;;;;5132540;27;20114;-70
2023/05/14 02:28:29;;;;;;;4.35;3.33;;;10.70;99.90;;;;;;5132451;27;20066;-70
2023/05/14 02:31:00;;;;;;;5.18;3.78;;;10.60;99.90;;;;;;5132093;27;20035;-70
2023/05/14 02:33:25;;;;;;;4.40;2.72;;;10.70;99.90;;;;;;5127725;27;20047;-70
2023/05/14 02:35:51;;;;;;;4.75;3.58;;;10.60;99.90;;;;;;5119285;27;20486;-70
2023/05/14 02:38:17;;;;;;;4.07;2.50;;;10.70;99.90;;;;;;5132258;27;20053;-70
2023/05/14 02:40:43;;;;;;;4.63;3.05;;;10.60;99.90;;;;;;5132068;27;20126;-70
2023/05/14 02:43:09;;;;;;;5.03;2.58;;;10.60;99.90;;;;;;5123330;27;20035;-70
2023/05/14 02:45:34;;;;;;;2.70;1.80;;;10.70;99.90;;;;;;5119778;27;20095;-70
2023/05/14 02:48:00;;;;;;;4.28;2.30;;;10.60;99.90;;;;;;5115110;27;20031;-71
2023/05/14 02:50:26;;;;;;;4.60;2.97;;;10.50;99.90;;;;;;5132408;27;20043;-71
2023/05/14 02:52:52;;;;;;;4.05;2.20;;;10.60;99.90;;;;;;5128081;27;20047;-72
2023/05/14 02:55:17;;;;;;;3.33;2.15;;;10.60;99.90;;;;;;5111251;28;20063;-71
2023/05/14 02:57:43;;;;;;;1.95;1.50;;;10.50;99.90;;;;;;5111020;28;20040;-71
2023/05/14 03:00:10;;;;;;;3.08;1.63;;;10.60;99.90;;;;;;5118298;27;20071;-70
2023/05/14 03:02:35;;;;;;;2.50;1.70;;;10.50;99.90;;;;;;5111746;27;20051;-71
2023/05/14 03:05:02;;;;;;;4.57;2.35;;;10.70;99.90;;;;;;5125205;27;20039;-70
2023/05/14 03:07:27;;;;;;;;;;;10.60;99.90;;;;;;5111064;27;20048;-70
2023/05/14 03:09:53;;;;;;;5.18;2.90;;;10.60;99.90;;;;;;5107069;27;20014;-70
2023/05/14 03:12:19;;;;;;;7.18;4.22;;;10.60;99.90;;;;;;5116606;27;20058;-70
2023/05/14 03:14:45;;;;;;;;;;;10.60;99.90;;;;;;5131065;27;20483;-70
2023/05/14 03:17:11;;;;;;;3.38;2.50;;;10.50;99.90;;;;;;5131361;27;19970;-70
2023/05/14 03:19:36;;;;;;;6.20;3.30;;;10.60;99.90;;;;;;5114529;27;20047;-71
2023/05/14 03:22:02;;;;;;;4.55;2.50;;;10.50;99.90;;;;;;5113764;27;20047;-70
2023/05/14 03:24:28;;;;;;;3.47;2.08;;;10.60;99.90;;;;;;5131160;27;20395;-70
2023/05/14 03:26:53;;;;;;;5.40;3.40;;;10.50;99.90;;;;;;5127655;27;20032;-70
2023/05/14 03:29:19;;;;;;;6.32;3.42;;;10.50;99.90;;;;;;5114106;27;20080;-70
2023/05/14 03:31:45;;;;;;;4.65;2.30;;;10.60;99.90;;;;;;5131006;27;20039;-69
2023/05/14 03:34:11;;;;;;;2.83;1.92;;;10.50;99.90;;;;;;5130969;27;20050;-69
2023/05/14 03:36:38;;;;;;;3.75;1.83;;;10.60;99.90;;;;;;5130273;27;20049;-69
2023/05/14 03:39:05;;;;;;;2.50;1.40;;;10.60;99.90;;;;;;5113925;27;20546;-69
2023/05/14 03:41:32;;;;;;;1.73;0.95;;;10.50;99.90;;;;;;5130098;27;20051;-69
2023/05/14 03:43:57;;;;;;;1.30;1.20;;;10.60;99.90;;;;;;5109681;28;20047;-70
2023/05/14 03:46:23;;;;;;;2.67;1.65;;;10.40;99.90;;;;;;5110480;27;20042;-69
2023/05/14 03:48:48;;;;;;;3.28;2.17;;;10.40;99.90;;;;;;5123649;27;20421;-69
2023/05/14 03:51:14;;;;;;;3.63;2.10;;;10.60;99.90;;;;;;5110919;27;20494;-70
2023/05/14 03:53:40;;;;;;;4.95;2.40;;;10.60;99.90;;;;;;5095128;27;20057;-69
2023/05/14 03:56:05;;;;;;;3.42;2.50;;;10.40;99.90;;;;;;5111475;27;20093;-69
2023/05/14 03:58:31;;;;;;;2.08;1.65;;;10.50;99.90;;;;;;5109484;28;20046;-69
2023/05/14 04:00:57;;;;;;;3.67;1.77;;;10.50;99.90;;;;;;5109615;28;20051;-69
2023/05/14 04:03:23;;;;;;;3.17;2.10;;;10.50;99.90;;;;;;5126147;27;20034;-69
2023/05/14 04:05:50;;;;;;;3.38;2.30;;;10.60;99.90;;;;;;5129631;27;20514;-68
2023/05/14 04:08:15;;;;;;;3.10;2.20;;;10.50;99.90;;;;;;5129047;27;20043;-69
2023/05/14 04:10:42;;;;;;;4.13;3.05;;;10.60;99.90;;;;;;5122198;27;20088;-69
2023/05/14 04:13:07;;;;;;;5.55;3.13;;;10.40;99.90;;;;;;5121460;27;20557;-69
2023/05/14 04:15:34;;;;;;;6.88;3.33;;;10.40;99.90;;;;;;5129345;27;20119;-69
2023/05/14 04:18:00;;;;;;;4.22;2.38;;;10.40;99.90;;;;;;5129770;27;20070;-69
2023/05/14 04:20:26;;;;;;;2.75;1.83;;;10.60;99.90;;;;;;5130197;27;20051;-69
2023/05/14 04:22:53;;;;;;;2.53;1.70;;;10.60;99.90;;;;;;5124663;27;20055;-69
2023/05/14 04:25:18;;;;;;;;;;;10.70;99.90;;;;;;5129585;27;20046;-69
2023/05/14 04:27:44;;;;;;;2.55;1.40;;;10.70;99.90;;;;;;5115893;27;19916;-69
2023/05/14 04:30:10;;;;;;;2.92;1.35;;;10.50;99.90;;;;;;5125933;27;20091;-69
2023/05/14 04:32:36;;;;;;;3.63;1.88;;;10.80;99.90;;;;;;5095391;28;20130;-69
2023/05/14 04:35:03;;;;;;;3.40;1.90;;;10.60;99.90;;;;;;5111539;28;20059;-69
2023/05/14 04:37:29;;;;;;;4.28;2.20;;;10.70;99.90;;;;;;5120263;28;20044;-69
2023/05/14 04:39:55;;;;;;;4.60;1.92;;;10.80;99.90;;;;;;5113002;28;20096;-70
2023/05/14 04:42:21;;;;;;;4.63;2.00;;;11.00;99.90;;;;;;5121040;28;20052;-70
2023/05/14 04:44:47;;;;;;;7.90;3.10;;;11.00;99.90;;;;;;5109280;28;20489;-70
2023/05/14 04:47:12;;;;;;;5.32;3.08;;;11.10;99.90;;;;;;5094195;28;20154;-70
2023/05/14 04:49:38;;;;;;;3.95;2.25;;;11.30;99.90;;;;;;5108150;28;20122;-70
2023/05/14 04:52:05;;;;;;;6.32;2.20;;;11.20;99.90;;;;;;5111819;28;20118;-70
2023/05/14 04:54:31;;;;;;;4.45;1.92;;;11.20;99.90;;;;;;5114179;28;20090;-70
2023/05/14 04:56:56;;;;;;;3.85;1.60;;;11.20;99.90;;;;;;5129510;27;20125;-70
2023/05/14 04:59:22;;;;;;;6.30;2.40;;;11.50;99.90;;;;;;5130693;27;20686;-70
2023/05/14 05:01:48;;;;;;;3.97;2.20;;;11.20;99.90;;;;;;5116927;27;20525;-70
2023/05/14 05:04:13;;;;;;;2.72;1.55;;;11.60;99.90;;;;;;5126033;27;20028;-70
2023/05/14 05:06:39;;;;;;;4.10;1.90;;;11.40;99.90;;;;;;5115012;27;20110;-70
2023/05/14 05:09:05;;;;;;;5.97;2.60;;;11.50;99.90;;;;;;5114788;27;20044;-70
2023/05/14 05:11:31;;;;;;;8.40;3.35;;;11.60;99.90;;;;;;5100153;27;20042;-70
2023/05/14 05:13:56;;;;;;;6.95;3.00;;;11.40;99.90;;;;;;5130356;27;20051;-70
2023/05/14 05:16:22;;;;;;;5.82;2.47;;;11.60;99.90;;;;;;5120354;27;20153;-70
2023/05/14 05:18:47;;;;;;;6.32;3.00;;;11.60;99.90;;;;;;5127282;27;20467;-70
2023/05/14 05:21:13;;;;;;;6.47;2.58;;;11.70;99.90;;;;;;5130208;27;20034;-70
2023/05/14 05:23:39;;;;;;;6.30;2.53;;;11.80;99.90;;;;;;5124030;27;20082;-67
2023/05/14 05:26:04;;;;;;;3.92;2.08;;;11.80;99.90;;;;;;5113019;27;20043;-69
2023/05/14 05:28:30;;;;;;;4.07;2.45;;;11.80;99.90;;;;;;5113112;28;20042;-69
2023/05/14 05:30:56;;;;;;;5.38;2.70;;;11.80;99.90;;;;;;5112922;28;20122;-69
2023/05/14 05:33:21;;;;;;;4.60;2.42;;;11.80;99.90;;;;;;5114224;28;20047;-69
2023/05/14 05:35:48;;;;;;;3.45;2.00;;;12.00;99.90;;;;;;5120596;27;20069;-69
2023/05/14 05:38:17;;;;;;;6.47;3.00;;;12.00;99.90;;;;;;5133432;27;20130;-69
2023/05/14 05:40:42;;;;;;;6.72;2.90;;;12.20;99.90;;;;;;5128422;27;20035;-70
2023/05/14 05:43:08;;;;;;;4.53;2.92;;;12.30;99.90;;;;;;5145269;27;20047;-70
2023/05/14 05:45:34;;;;;;;10.13;3.78;;;12.20;99.90;;;;;;5113265;27;20398;-70
2023/05/14 05:47:59;;;;;;;6.00;2.95;;;12.30;99.90;;;;;;5123266;27;20051;-70
2023/05/14 05:50:25;;;;;;;8.05;4.07;;;12.50;99.90;;;;;;5130894;27;20046;-70
2023/05/14 05:52:51;;;;;;;10.45;4.38;;;12.60;99.90;;;;;;5098582;27;20491;-70
2023/05/14 05:55:18;;;;;;;;;;;12.60;99.90;;;;;;5117533;27;20106;-70
2023/05/14 05:57:43;;;;;;;5.88;2.30;;;12.90;99.90;;;;;;5125309;27;19941;-70
2023/05/14 06:00:12;;;;;;;3.58;2.08;;;13.00;99.90;;;;;;5121216;27;20469;-70
2023/05/14 06:02:38;;;;;;;9.95;4.10;;;13.20;99.90;;;;;;5115833;27;20046;-70
2023/05/14 06:05:05;;;;;;;7.88;2.95;;;13.50;99.90;;;;;;5127255;27;20043;-70
2023/05/14 06:07:31;;;;;;;4.22;2.50;;;13.80;99.90;;;;;;5119027;27;20031;-70
2023/05/14 06:09:57;;;;;;;5.35;3.00;;;14.00;99.90;;;;;;5132808;27;20047;-71
2023/05/14 06:12:22;;;;;;;8.50;3.13;;;14.10;99.90;;;;;;5132314;27;20134;-69
2023/05/14 06:14:48;;;;;;;6.68;3.40;;;14.30;99.90;;;;;;5127183;27;20039;-69
2023/05/14 06:17:13;;;;;;;5.10;2.35;;;14.60;99.90;;;;;;5115525;27;20445;-69
2023/05/14 06:19:39;;;;;;;7.72;2.95;;;14.90;99.90;;;;;;5112041;28;20044;-69
2023/05/14 06:22:05;;;;;;;5.55;2.30;;;15.00;99.90;;;;;;5119555;27;20048;-70
2023/05/14 06:24:30;;;;;;;2.90;1.80;;;15.10;99.90;;;;;;5112177;27;20101;-70
2023/05/14 06:26:56;;;;;;;6.57;2.70;;;15.10;99.90;;;;;;5124155;27;20502;-69
2023/05/14 06:29:22;;;;;;;5.30;2.90;;;15.10;99.90;;;;;;5114691;27;20576;-70
2023/05/14 06:31:47;;;;;;;5.72;2.60;;;15.10;99.90;;;;;;5118051;27;20074;-69
2023/05/14 06:34:13;;;;;;;8.02;2.88;;;15.10;99.90;;;;;;5113294;27;20055;-69
2023/05/14 06:36:39;;;;;;;3.33;1.95;;;15.10;99.90;;;;;;5126666;27;20080;-69
2023/05/14 06:39:05;;;;;;;5.32;2.38;;;15.20;99.90;;;;;;5114143;27;20185;-69
2023/05/14 06:41:30;;;;;;;3.03;1.58;;;15.10;99.90;;;;;;5110536;28;20091;-69
2023/05/14 06:43:56;;;;;;;5.35;2.70;;;15.10;99.90;;;;;;5095217;28;20452;-70
2023/05/14 06:46:22;;;;;;;6.00;2.60;;;15.20;99.90;;;;;;5099903;27;20555;-70
2023/05/14 06:48:48;;;;;;;3.42;1.98;;;15.10;99.90;;;;;;5101344;28;20050;-69
2023/05/14 06:51:13;;;;;;;4.30;2.10;;;15.10;99.90;;;;;;5108955;27;20065;-69
2023/05/14 06:53:39;;;;;;;6.43;2.80;;;15.10;99.90;;;;;;5124582;27;20073;-70
2023/05/14 06:56:05;;;;;;;;;;;15.10;99.90;;;;;;5115938;27;20521;-70
2023/05/14 06:58:31;;;;;;;6.80;2.80;;;15.00;99.90;;;;;;5110169;27;19916;-70
2023/05/14 07:00:57;;;;;;;5.30;2.25;;;15.00;99.90;;;;;;5110875;28;20047;-69
2023/05/14 07:03:23;;;;;;;5.03;2.50;;;15.10;99.90;;;;;;5115649;27;20390;-70
2023/05/14 07:05:49;;;;;;;3.58;2.10;;;15.10;99.90;;;;;;5125920;27;20043;-69
2023/05/14 07:08:14;;;;;;;5.90;2.60;;;15.10;99.90;;;;;;5118189;27;20035;-70
2023/05/14 07:10:40;;;;;;;3.67;2.10;;;15.10;99.90;;;;;;5116480;27;20058;-70
2023/05/14 07:13:06;;;;;;;6.95;2.45;;;15.10;99.90;;;;;;5114809;27;20039;-70
2023/05/14 07:15:32;;;;;;;5.60;2.40;;;15.20;99.90;;;;;;5111037;28;20051;-70
2023/05/14 07:17:58;;;;;;;5.55;2.42;;;15.20;99.90;;;;;;5110510;28;20051;-70
2023/05/14 07:20:23;;;;;;;5.05;2.95;;;15.30;99.90;;;;;;5110549;28;20047;-70
2023/05/14 07:22:51;;;;;;;4.45;2.30;;;15.30;99.90;;;;;;5117535;27;20517;-68
2023/05/14 07:25:17;;;;;;;6.90;2.97;;;15.40;99.90;;;;;;5127337;27;20115;-69
2023/05/14 07:27:42;;;;;;;4.60;2.47;;;15.40;99.90;;;;;;5117264;27;20035;-69
2023/05/14 07:30:08;;;;;;;6.78;3.55;;;15.40;99.90;;;;;;5118720;27;20051;-69
2023/05/14 07:32:34;;;;;;;9.73;3.30;;;15.50;99.90;;;;;;5130600;27;20554;-69
2023/05/14 07:35:00;;;;;;;5.75;2.70;;;15.50;99.90;;;;;;5130542;27;20070;-68
2023/05/14 07:37:26;;;;;;;5.53;3.08;;;15.50;99.90;;;;;;5113698;27;20066;-68
2023/05/14 07:39:52;;;;;;;7.55;3.65;;;15.50;99.90;;;;;;5130716;27;20410;-68
2023/05/14 07:42:18;;;;;;;6.75;3.85;;;15.60;99.90;;;;;;5111931;27;20092;-68
2023/05/14 07:44:43;;;;;;;7.43;3.17;;;15.80;99.90;;;;;;5115363;27;20040;-69
2023/05/14 07:47:09;;;;;;;8.43;3.83;;;15.90;99.90;;;;;;5114715;27;20048;-69
2023/05/14 07:49:35;;;;;;;6.25;3.50;;;15.90;99.90;;;;;;5110039;27;20046;-70
2023/05/14 07:52:01;;;;;;;;;;;15.90;99.90;;;;;;5128872;27;20081;-68
2023/05/14 07:54:27;;;;;;;8.27;3.70;;;15.90;99.90;;;;;;5119318;27;19963;-69
2023/05/14 07:56:52;;;;;;;6.90;3.05;;;16.10;99.90;;;;;;5115783;27;20047;-68
2023/05/14 07:59:18;;;;;;;6.68;2.97;;;16.20;99.90;;;;;;5114818;27;20049;-68
2023/05/14 08:01:44;;;;;;;4.75;2.63;;;16.20;99.90;;;;;;5119157;27;20039;-70
2023/05/14 08:04:10;;;;;;;5.78;2.65;;;16.30;99.90;;;;;;5113925;27;20423;-70
2023/05/14 08:06:36;;;;;;;3.95;2.60;;;16.40;99.90;;;;;;5118418;27;20047;-69
2023/05/14 08:09:04;;;;;;;;;;;16.40;99.90;;;;;;5120385;27;20391;-69
2023/05/14 08:11:30;;;;;;;4.40;2.28;;;16.40;99.90;;;;;;5125832;27;20009;-70
2023/05/14 08:13:56;;;;;;;;;;;16.40;99.90;;;;;;5113689;27;20054;-69
2023/05/14 08:16:22;;;;;;;5.53;2.78;;;16.50;99.90;;;;;;5129175;27;19923;-69
2023/05/14 08:18:48;;;;;;;5.97;2.40;;;16.70;99.90;;;;;;5118365;27;20051;-69
2023/05/14 08:21:14;;;;;;;8.75;3.17;;;16.80;99.90;;;;;;5092636;28;20128;-69
2023/05/14 08:23:39;;;;;;;5.97;2.30;;;16.80;99.90;;;;;;5113504;27;20046;-69
2023/05/14 08:26:05;;;;;;;;;;;16.80;99.90;;;;;;5117869;27;20522;-69
2023/05/14 08:28:31;;;;;;;5.05;2.50;;;16.80;99.90;;;;;;5117965;27;20401;-69
2023/05/14 08:30:56;;;;;;;4.30;2.35;;;17.20;99.90;;;;;;5098405;27;20134;-70
2023/05/14 08:33:22;;;;;;;;;;;17.40;99.90;;;;;;5121608;28;20065;-69
2023/05/14 08:35:51;;;;;;;5.15;2.42;;;17.40;99.90;;;;;;5116603;28;19931;-69
2023/05/14 08:38:18;;;;;;;5.45;2.53;;;17.60;99.90;;;;;;5113710;28;20083;-69
2023/05/14 08:40:57;;;;;;;4.03;2.78;;;17.80;99.90;;;;;;5095128;28;20087;-69
2023/05/14 08:43:28;;;;;;;4.32;2.30;;;17.80;99.90;;;;;;5128935;28;20039;-69
2023/05/14 08:45:59;;;;;;;4.93;3.03;;;17.90;99.90;;;;;;5099640;28;20063;-69
2023/05/14 08:48:27;;;;;;;5.97;2.88;;;18.00;99.90;;;;;;5126437;28;20035;-69
2023/05/14 08:50:53;;;;;;;5.95;2.67;;;17.90;99.90;;;;;;5094731;28;20045;-68
2023/05/14 08:53:19;;;;;;;;;;;17.90;99.90;;;;;;5126279;28;20054;-68
2023/05/14 08:55:46;;;;;;;4.57;2.45;;;18.00;99.90;;;;;;5127737;28;19933;-68
2023/05/14 08:58:12;;;;;;;4.15;2.00;;;17.90;99.90;;;;;;5101724;28;20051;-68
2023/05/14 09:00:38;;;;;;;;;;;18.00;99.90;;;;;;5098958;28;20051;-68
2023/05/14 09:03:05;;;;;;;5.65;2.70;;;18.00;99.90;;;;;;5092855;28;20014;-68
2023/05/14 09:05:32;;;;;;;7.28;2.90;;;18.00;99.90;;;;;;5115515;28;20039;-68
2023/05/14 09:07:58;;;;;;;5.68;2.38;;;18.10;99.90;;;;;;5119962;28;20047;-69
2023/05/14 09:10:24;;;;;;;5.18;2.30;;;18.40;99.90;;;;;;5117067;28;20368;-68
2023/05/14 09:12:50;;;;;;;3.33;1.75;;;18.50;99.90;;;;;;5118787;28;20062;-68
2023/05/14 09:15:16;;;;;;;;;;;18.80;85.30;;;;;;5118145;28;20036;-68
2023/05/14 09:17:42;;;;;;;6.35;2.63;;;19.10;93.60;;;;;;5116325;28;20369;-69
2023/05/14 09:20:11;;;;;;;5.72;2.38;;;19.10;99.90;;;;;;5115380;28;20051;-68
2023/05/14 09:22:38;;;;;;;3.13;2.03;;;18.70;83.20;;;;;;5119725;28;20558;-68
2023/05/14 09:25:08;;;;;;;4.32;2.17;;;18.80;99.90;;;;;;5124958;28;20054;-68
2023/05/14 09:27:35;;;;;;;5.03;2.45;;;18.80;99.90;;;;;;5129871;28;20498;-68
2023/05/14 09:30:18;;;;;;;4.85;2.40;;;18.60;99.90;;;;;;5096166;28;20051;-68
2023/05/14 09:32:49;;;;;;;3.03;1.95;;;18.70;99.90;;;;;;5107949;28;20115;-68
2023/05/14 09:35:20;;;;;;;2.65;1.75;;;19.10;99.90;;;;;;5123248;28;20490;-68
2023/05/14 09:37:48;;;;;;;2.88;1.80;;;19.30;59.30;;;;;;5119999;28;20087;-68
2023/05/14 09:40:14;;;;;;;3.95;2.75;;;19.60;99.90;;;;;;5115883;27;20047;-68
2023/05/14 09:42:40;;;;;;;3.08;2.10;;;19.40;99.90;;;;;;5130517;27;20511;-69
2023/05/14 09:45:06;;;;;;;;;;;19.40;39.20;;;;;;5105967;27;20070;-68
2023/05/14 09:47:32;;;;;;;2.53;1.90;;;19.70;99.90;;;;;;5128215;27;20397;-68
2023/05/14 09:49:58;;;;;;;;;;;19.80;12.80;;;;;;5129438;27;20035;-68
2023/05/14 09:52:24;;;;;;;4.05;2.20;;;20.00;1.00;;;;;;5125208;27;20436;-68
2023/05/14 09:54:51;;;;;;;3.63;1.90;;;20.30;1.00;;;;;;5120569;27;20051;-69
2023/05/14 09:57:17;;;;;;;2.35;1.50;;;20.60;23.70;;;;;;5130411;27;20043;-69
2023/05/14 09:59:43;;;;;;;4.40;2.25;;;20.70;1.00;;;;;;5125964;27;20035;-69
2023/05/14 10:02:19;;;;;;;4.03;2.15;;;21.10;1.00;;;;;;5124001;27;20394;-68
2023/05/14 10:04:46;;;;;;;3.20;2.10;;;21.20;99.90;;;;;;5114837;27;20043;-71
2023/05/14 10:07:12;;;;;;;3.72;1.92;;;21.30;99.90;;;;;;5111789;28;20063;-70
2023/05/14 10:09:40;;;;;;;3.65;2.13;;;21.40;99.90;;;;;;5118665;27;20049;-71
2023/05/14 10:12:07;;;;;;;4.07;1.98;;;21.50;99.90;;;;;;5129360;27;20047;-71
2023/05/14 10:14:39;;;;;;;4.03;2.00;;;21.60;99.90;;;;;;5114410;27;20042;-71
2023/05/14 10:17:06;;;;;;;2.65;1.60;;;21.70;99.90;;;;;;5114264;27;20043;-69
2023/05/14 10:19:36;;;;;;;2.60;1.50;;;21.70;99.90;;;;;;5119606;27;20402;-70
2023/05/14 10:22:07;;;;;;;4.53;2.20;;;21.80;99.90;;;;;;5118543;27;20051;-70
2023/05/14 10:24:33;;;;;;;2.83;1.90;;;21.60;1.00;;;;;;5128894;27;20047;-70
2023/05/14 10:26:59;;;;;;;5.70;2.83;;;21.30;99.90;;;;;;5120770;27;20521;-70
2023/05/14 10:29:36;;;;;;;3.08;1.95;;;21.10;1.00;;;;;;5118480;27;20032;-70
2023/05/14 10:32:06;;;;;;;4.03;2.83;;;21.20;99.90;;;;;;5121362;27;20039;-70
2023/05/14 10:34:39;;;;;;;4.85;2.55;;;20.90;99.90;;;;;;5103567;27;20043;-70
2023/05/14 10:37:20;;;;;;;5.07;2.67;;;20.60;99.90;;;;;;5121033;27;20145;-70
2023/05/14 10:39:52;;;;;;;5.22;2.20;;;20.70;1.00;;;;;;5102612;27;20047;-69
2023/05/14 10:42:22;;;;;;;4.82;2.92;;;21.00;1.00;;;;;;5122777;27;20047;-69
2023/05/14 10:44:49;;;;;;;4.50;2.60;;;21.20;1.00;;;;;;5120705;27;20039;-69
2023/05/14 10:47:16;;;;;;;2.50;1.95;;;21.30;99.90;;;;;;5128311;27;20070;-69
2023/05/14 10:49:43;;;;;;;3.55;1.80;;;21.50;99.90;;;;;;5110476;27;20054;-69
2023/05/14 10:52:10;;;;;;;3.13;1.70;;;21.90;99.90;;;;;;5112837;27;20549;-70
2023/05/14 10:54:36;;;;;;;5.35;2.95;;;22.50;99.90;;;;;;5130771;27;20047;-69
2023/05/14 10:57:02;;;;;;;4.75;2.65;;;22.60;99.90;;;;;;5113173;27;20054;-69
2023/05/14 10:59:28;;;;;;;5.43;2.78;;;22.50;99.90;;;;;;5114607;27;20095;-69
2023/05/14 11:01:56;;;;;;;3.03;2.30;;;22.40;99.90;;;;;;5120621;27;20046;-69
2023/05/14 11:04:27;;;;;;;4.00;2.15;;;22.50;99.90;;;;;;5117081;27;20039;-69
2023/05/14 11:06:53;;;;;;;3.47;2.50;;;22.60;99.90;;;;;;5114846;27;20055;-70
2023/05/14 11:09:21;;;;;;;2.55;1.77;;;22.80;99.90;;;;;;5121927;27;20035;-68
2023/05/14 11:11:47;;;;;;;4.68;2.83;;;23.20;99.90;;;;;;5101669;28;20050;-69
2023/05/14 11:14:13;;;;;;;4.57;2.60;;;23.10;99.90;;;;;;5110052;28;20040;-69
2023/05/14 11:16:40;;;;;;;3.28;2.30;;;22.90;99.90;;;;;;5110636;28;20082;-69
2023/05/14 11:19:06;;;;;;;3.83;2.53;;;22.90;99.90;;;;;;5110824;28;20050;-69
2023/05/14 11:21:32;;;;;;;2.53;2.00;;;22.90;24.90;;;;;;5110439;28;20479;-69
2023/05/14 11:24:01;;;;;;;3.30;2.05;;;23.30;1.00;;;;;;5110563;28;20091;-69
2023/05/14 11:26:26;;;;;;;3.15;2.00;;;23.60;62.20;;;;;;5110197;28;20174;-69
2023/05/14 11:28:52;;;;;;;3.17;2.17;;;23.70;1.00;;;;;;5076832;28;20122;-69
2023/05/14 11:31:18;;;;;;;2.95;2.15;;;23.60;1.00;;;;;;5111839;28;20135;-69
2023/05/14 11:33:44;;;;;;;2.78;2.00;;;23.30;99.90;;;;;;5110566;28;20046;-69
2023/05/14 11:36:10;;;;;;;2.67;1.88;;;23.10;99.90;;;;;;5121287;27;20406;-69
2023/05/14 11:38:50;;;;;;;3.55;1.90;;;23.10;99.90;;;;;;5130904;27;20049;-69
2023/05/14 11:41:16;;;;;;;2.50;1.90;;;22.90;1.00;;;;;;5113898;27;20420;-69
2023/05/14 11:43:41;;;;;;;2.65;1.75;;;22.80;99.90;;;;;;5132263;27;20047;-69
2023/05/14 11:46:14;;;;;;;3.35;1.90;;;22.80;1.00;;;;;;5120485;27;20412;-69
2023/05/14 11:48:40;;;;;;;4.57;2.15;;;23.00;1.00;;;;;;5122585;27;20035;-69
2023/05/14 11:51:06;;;;;;;3.35;2.25;;;23.20;1.00;;;;;;5103071;27;20096;-69
2023/05/14 11:53:32;;;;;;;2.75;2.15;;;23.40;1.00;;;;;;5130565;27;20039;-70
2023/05/14 11:55:58;;;;;;;4.00;2.60;;;23.60;99.90;;;;;;5131677;27;20092;-69
2023/05/14 11:58:24;;;;;;;2.58;2.00;;;23.70;1.00;;;;;;5131949;27;20445;-69
2023/05/14 12:00:50;;;;;;;2.42;1.65;;;23.80;99.90;;;;;;5130660;27;20050;-69
2023/05/14 12:03:25;;;;;;;2.95;1.65;;;24.00;99.90;;;;;;5129714;27;20458;-69
2023/05/14 12:05:58;;;;;;;2.05;1.50;;;24.30;99.90;;;;;;5130413;27;20150;-69
2023/05/14 12:08:29;;;;;;;2.45;1.70;;;24.60;99.90;;;;;;5130763;27;20039;-69
2023/05/14 12:10:57;;;;;;;2.95;1.92;;;24.80;99.90;;;;;;5130262;27;20486;-70
2023/05/14 12:13:26;;;;;;;4.72;2.83;;;24.90;99.90;;;;;;5130284;27;20047;-69
2023/05/14 12:15:56;;;;;;;3.83;2.67;;;24.60;99.90;;;;;;5130402;27;20082;-69
2023/05/14 12:18:30;;;;;;;3.63;2.45;;;24.20;99.90;;;;;;5130271;27;20047;-69
2023/05/14 12:21:02;;;;;;;1.80;1.45;;;23.90;99.90;;;;;;5130039;27;20043;-69
2023/05/14 12:23:30;;;;;;;4.13;2.40;;;24.00;99.90;;;;;;5130153;27;20051;-69
2023/05/14 12:26:07;;;;;;;5.15;3.20;;;23.90;99.90;;;;;;5130141;27;20076;-69
2023/05/14 12:28:34;;;;;;;2.60;2.08;;;23.90;99.90;;;;;;5130490;27;20035;-69
2023/05/14 12:31:00;;;;;;;2.65;1.90;;;23.80;99.90;;;;;;5131476;27;20130;-69
2023/05/14 12:33:26;;;;;;;3.30;2.30;;;23.90;99.90;;;;;;5130117;27;20541;-69
2023/05/14 12:35:53;;;;;;;3.65;1.77;;;23.60;99.90;;;;;;5121288;28;20548;-69
2023/05/14 12:38:19;;;;;;;3.22;2.30;;;23.50;99.90;;;;;;5109402;28;20051;-69
2023/05/14 12:40:45;;;;;;;2.80;1.60;;;23.20;99.90;;;;;;5109512;28;20051;-69
2023/05/14 12:43:10;;;;;;;1.90;1.65;;;23.30;99.90;;;;;;5113601;28;20363;-69
2023/05/14 12:45:36;;;;;;;2.00;1.48;;;23.10;99.90;;;;;;5113068;28;20071;-69
2023/05/14 12:48:02;;;;;;;2.70;1.60;;;23.30;99.90;;;;;;5130296;28;20393;-69
2023/05/14 12:50:28;;;;;;;1.83;1.60;;;23.20;99.90;;;;;;5120563;28;20036;-70